createdAt,value
2017-08-03T00:00:14.344Z,1030.03
2017-08-03T00:01:14.342Z,1030.05
2017-08-03T00:02:14.343Z,1030.03
2017-08-03T00:03:14.344Z,1030.04
2017-08-03T00:04:14.340Z,1030.05
2017-08-03T00:05:14.344Z,1030.06
2017-08-03T00:06:14.340Z,1030.04
2017-08-03T00:07:14.337Z,1030.02
2017-08-03T00:08:14.342Z,1029.99
2017-08-03T00:09:14.333Z,1029.91
2017-08-03T00:10:14.338Z,1029.86
2017-08-03T00:11:14.339Z,1029.86
2017-08-03T00:12:14.337Z,1029.82
2017-08-03T00:13:14.335Z,1029.83
2017-08-03T00:14:14.334Z,1029.85
2017-08-03T00:15:14.335Z,1029.89
2017-08-03T00:16:14.335Z,1029.89
2017-08-03T00:17:14.331Z,1029.88
2017-08-03T00:18:14.336Z,1029.89
2017-08-03T00:19:14.334Z,1029.89
2017-08-03T00:20:14.332Z,1029.91
2017-08-03T00:21:14.326Z,1029.92
2017-08-03T00:22:14.330Z,1029.92
2017-08-03T00:23:14.329Z,1029.87
2017-08-03T00:24:14.327Z,1029.86
2017-08-03T00:25:14.327Z,1029.86
2017-08-03T00:26:14.327Z,1029.87
2017-08-03T00:27:14.324Z,1029.87
2017-08-03T00:28:14.323Z,1029.84
2017-08-03T00:29:14.322Z,1029.84
2017-08-03T00:30:14.323Z,1029.8
2017-08-03T00:31:14.321Z,1029.8
2017-08-03T00:32:14.322Z,1029.78
2017-08-03T00:33:14.317Z,1029.74
2017-08-03T00:34:14.320Z,1029.74
2017-08-03T00:35:14.317Z,1029.74
2017-08-03T00:36:14.317Z,1029.73
2017-08-03T00:37:14.313Z,1029.7
2017-08-03T00:38:14.318Z,1029.71
2017-08-03T00:39:14.314Z,1029.67
2017-08-03T00:40:14.317Z,1029.64
2017-08-03T00:41:14.322Z,1029.59
2017-08-03T00:42:14.314Z,1029.58
2017-08-03T00:43:14.312Z,1029.54
2017-08-03T00:44:14.312Z,1029.52
2017-08-03T00:45:14.309Z,1029.53
2017-08-03T00:46:14.304Z,1029.49
2017-08-03T00:47:14.306Z,1029.5
2017-08-03T00:48:14.308Z,1029.5
2017-08-03T00:49:14.306Z,1029.54
2017-08-03T00:50:14.303Z,1029.55
2017-08-03T00:51:14.305Z,1029.52
2017-08-03T00:52:14.304Z,1029.52
2017-08-03T00:53:14.304Z,1029.5
2017-08-03T00:54:14.297Z,1029.53
2017-08-03T00:55:14.302Z,1029.55
2017-08-03T00:56:14.297Z,1029.53
2017-08-03T00:57:14.296Z,1029.56
2017-08-03T00:58:14.298Z,1029.55
2017-08-03T00:59:14.298Z,1029.58
2017-08-03T01:00:14.298Z,1029.57
2017-08-03T01:01:14.295Z,1029.53
2017-08-03T01:02:14.294Z,1029.53
2017-08-03T01:03:14.292Z,1029.5
2017-08-03T01:04:14.291Z,1029.49
2017-08-03T01:05:14.290Z,1029.48
2017-08-03T01:06:14.290Z,1029.47
2017-08-03T01:07:14.291Z,1029.55
2017-08-03T01:08:14.283Z,1029.47
2017-08-03T01:09:14.287Z,1029.51
2017-08-03T01:10:14.279Z,1029.45
2017-08-03T01:11:14.283Z,1029.45
2017-08-03T01:12:14.282Z,1029.47
2017-08-03T01:13:14.280Z,1029.43
2017-08-03T01:14:14.280Z,1029.41
2017-08-03T01:15:14.275Z,1029.42
2017-08-03T01:16:14.276Z,1029.4
2017-08-03T01:17:14.274Z,1029.4
2017-08-03T01:18:14.277Z,1029.41
2017-08-03T01:19:14.275Z,1029.37
2017-08-03T01:20:14.269Z,1029.35
2017-08-03T01:21:14.272Z,1029.34
2017-08-03T01:22:14.271Z,1029.31
2017-08-03T01:23:14.265Z,1029.34
2017-08-03T01:24:14.266Z,1029.32
2017-08-03T01:25:14.264Z,1029.33
2017-08-03T01:26:14.263Z,1029.32
2017-08-03T01:27:14.266Z,1029.31
2017-08-03T01:28:14.258Z,1029.31
2017-08-03T01:29:14.262Z,1029.3
2017-08-03T01:30:14.258Z,1029.28
2017-08-03T01:31:14.253Z,1029.3
2017-08-03T01:32:14.254Z,1029.29
2017-08-03T01:33:14.257Z,1029.28
2017-08-03T01:34:14.254Z,1029.26
2017-08-03T01:35:14.249Z,1029.25
2017-08-03T01:36:14.252Z,1029.27
2017-08-03T01:37:14.250Z,1029.22
2017-08-03T01:38:14.251Z,1029.22
2017-08-03T01:39:14.249Z,1029.18
2017-08-03T01:40:14.249Z,1029.19
2017-08-03T01:41:14.246Z,1029.17
2017-08-03T01:42:14.243Z,1029.19
2017-08-03T01:43:14.243Z,1029.18
2017-08-03T01:44:14.241Z,1029.16
2017-08-03T01:45:14.236Z,1029.17
2017-08-03T01:46:14.241Z,1029.17
2017-08-03T01:47:14.237Z,1029.15
2017-08-03T01:48:14.236Z,1029.2
2017-08-03T01:49:14.235Z,1029.22
2017-08-03T01:50:14.232Z,1029.24
2017-08-03T01:51:14.231Z,1029.21
2017-08-03T01:52:14.226Z,1029.24
2017-08-03T01:53:14.226Z,1029.21
2017-08-03T01:54:14.227Z,1029.19
2017-08-03T01:55:14.227Z,1029.22
2017-08-03T01:56:14.224Z,1029.22
2017-08-03T01:57:14.224Z,1029.22
2017-08-03T01:58:14.222Z,1029.22
2017-08-03T01:59:14.519Z,1029.2
2017-08-03T02:00:14.220Z,1029.25
2017-08-03T02:01:14.217Z,1029.22
2017-08-03T02:02:14.220Z,1029.2
2017-08-03T02:03:14.213Z,1029.2
2017-08-03T02:04:14.213Z,1029.19
2017-08-03T02:05:14.216Z,1029.18
2017-08-03T02:06:14.210Z,1029.16
2017-08-03T02:07:14.210Z,1029.17
2017-08-03T02:08:14.209Z,1029.18
2017-08-03T02:09:14.208Z,1029.16
2017-08-03T02:10:14.205Z,1029.14
2017-08-03T02:11:14.203Z,1029.08
2017-08-03T02:12:14.201Z,1029.08
2017-08-03T02:13:14.201Z,1029.01
2017-08-03T02:14:14.198Z,1029
2017-08-03T02:15:14.196Z,1028.94
2017-08-03T02:16:14.202Z,1028.91
2017-08-03T02:17:14.194Z,1028.85
2017-08-03T02:18:14.193Z,1028.82
2017-08-03T02:19:14.195Z,1028.81
2017-08-03T02:20:14.198Z,1028.83
2017-08-03T02:21:14.186Z,1028.79
2017-08-03T02:22:14.184Z,1028.77
2017-08-03T02:23:14.187Z,1028.73
2017-08-03T02:24:14.184Z,1028.7
2017-08-03T02:25:14.181Z,1028.72
2017-08-03T02:26:14.183Z,1028.73
2017-08-03T02:27:14.181Z,1028.75
2017-08-03T02:28:14.176Z,1028.73
2017-08-03T02:29:14.176Z,1028.74
2017-08-03T02:30:14.173Z,1028.71
2017-08-03T02:31:14.175Z,1028.72
2017-08-03T02:32:14.169Z,1028.75
2017-08-03T02:33:14.175Z,1028.78
2017-08-03T02:34:14.167Z,1028.76
2017-08-03T02:35:14.170Z,1028.73
2017-08-03T02:36:14.167Z,1028.73
2017-08-03T02:37:14.169Z,1028.75
2017-08-03T02:38:14.166Z,1028.74
2017-08-03T02:39:14.162Z,1028.74
2017-08-03T02:40:14.161Z,1028.73
2017-08-03T02:41:14.162Z,1028.72
2017-08-03T02:42:14.160Z,1028.67
2017-08-03T02:43:14.157Z,1028.72
2017-08-03T02:44:14.154Z,1028.68
2017-08-03T02:45:14.158Z,1028.7
2017-08-03T02:46:14.153Z,1028.68
2017-08-03T02:47:14.155Z,1028.63
2017-08-03T02:48:14.152Z,1028.57
2017-08-03T02:49:14.151Z,1028.58
2017-08-03T02:50:14.145Z,1028.54
2017-08-03T02:51:14.147Z,1028.57
2017-08-03T02:52:14.146Z,1028.61
2017-08-03T02:53:14.145Z,1028.62
2017-08-03T02:54:14.141Z,1028.6
2017-08-03T02:55:14.141Z,1028.59
2017-08-03T02:56:14.144Z,1028.59
2017-08-03T02:57:14.140Z,1028.61
2017-08-03T02:58:14.139Z,1028.68
2017-08-03T02:59:14.137Z,1028.66
2017-08-03T03:00:14.138Z,1028.64
2017-08-03T03:01:14.134Z,1028.63
2017-08-03T03:02:14.129Z,1028.62
2017-08-03T03:03:14.128Z,1028.59
2017-08-03T03:04:14.136Z,1028.56
2017-08-03T03:05:14.124Z,1028.54
2017-08-03T03:06:14.125Z,1028.49
2017-08-03T03:07:14.125Z,1028.48
2017-08-03T03:08:14.120Z,1028.5
2017-08-03T03:09:14.121Z,1028.54
2017-08-03T03:10:14.118Z,1028.58
2017-08-03T03:11:14.118Z,1028.59
2017-08-03T03:12:14.117Z,1028.55
2017-08-03T03:13:14.115Z,1028.57
2017-08-03T03:14:14.116Z,1028.62
2017-08-03T03:15:14.112Z,1028.71
2017-08-03T03:16:14.114Z,1028.72
2017-08-03T03:17:14.259Z,1028.73
2017-08-03T03:18:14.108Z,1028.71
2017-08-03T03:19:14.104Z,1028.79
2017-08-03T03:20:14.107Z,1028.78
2017-08-03T03:21:14.102Z,1028.81
2017-08-03T03:22:14.103Z,1028.75
2017-08-03T03:23:14.102Z,1028.73
2017-08-03T03:24:14.100Z,1028.73
2017-08-03T03:25:14.095Z,1028.73
2017-08-03T03:26:14.099Z,1028.78
2017-08-03T03:27:14.096Z,1028.79
2017-08-03T03:28:14.094Z,1028.77
2017-08-03T03:29:14.093Z,1028.74
2017-08-03T03:30:14.092Z,1028.66
2017-08-03T03:31:14.095Z,1028.65
2017-08-03T03:32:14.087Z,1028.63
2017-08-03T03:33:14.083Z,1028.55
2017-08-03T03:34:14.086Z,1028.57
2017-08-03T03:35:14.084Z,1028.63
2017-08-03T03:36:14.085Z,1028.68
2017-08-03T03:37:14.081Z,1028.7
2017-08-03T03:38:14.081Z,1028.71
2017-08-03T03:39:14.080Z,1028.69
2017-08-03T03:40:14.078Z,1028.65
2017-08-03T03:41:14.074Z,1028.62
2017-08-03T03:42:14.071Z,1028.58
2017-08-03T03:43:14.073Z,1028.57
2017-08-03T03:44:14.073Z,1028.57
2017-08-03T03:45:14.068Z,1028.56
2017-08-03T03:46:14.067Z,1028.53
2017-08-03T03:47:14.064Z,1028.53
2017-08-03T03:48:14.066Z,1028.54
2017-08-03T03:49:14.059Z,1028.53
2017-08-03T03:50:14.061Z,1028.55
2017-08-03T03:51:14.056Z,1028.58
2017-08-03T03:52:14.061Z,1028.62
2017-08-03T03:53:14.052Z,1028.62
2017-08-03T03:54:14.055Z,1028.64
2017-08-03T03:55:14.055Z,1028.63
2017-08-03T03:56:14.053Z,1028.67
2017-08-03T03:57:14.049Z,1028.62
2017-08-03T03:58:14.049Z,1028.63
2017-08-03T03:59:14.046Z,1028.59
2017-08-03T04:00:14.042Z,1028.53
2017-08-03T04:01:14.042Z,1028.49
2017-08-03T04:02:14.044Z,1028.43
2017-08-03T04:03:14.044Z,1028.37
2017-08-03T04:04:14.044Z,1028.31
2017-08-03T04:05:14.040Z,1028.3
2017-08-03T04:06:14.037Z,1028.25
2017-08-03T04:07:14.037Z,1028.23
2017-08-03T04:08:14.037Z,1028.16
2017-08-03T04:09:14.030Z,1028.13
2017-08-03T04:10:14.033Z,1028.12
2017-08-03T04:11:14.034Z,1028.09
2017-08-03T04:12:14.031Z,1028.08
2017-08-03T04:13:14.031Z,1028.04
2017-08-03T04:14:14.029Z,1028.03
2017-08-03T04:15:14.027Z,1027.98
2017-08-03T04:16:14.027Z,1027.94
2017-08-03T04:17:14.028Z,1027.93
2017-08-03T04:18:14.022Z,1027.91
2017-08-03T04:19:14.021Z,1027.83
2017-08-03T04:20:14.017Z,1027.72
2017-08-03T04:21:14.020Z,1027.74
2017-08-03T04:22:14.016Z,1027.7
2017-08-03T04:23:14.020Z,1027.71
2017-08-03T04:24:14.020Z,1027.71
2017-08-03T04:25:14.015Z,1027.71
2017-08-03T04:26:14.014Z,1027.73
2017-08-03T04:27:14.013Z,1027.67
2017-08-03T04:28:14.015Z,1027.64
2017-08-03T04:29:14.009Z,1027.58
2017-08-03T04:30:14.012Z,1027.55
2017-08-03T04:31:14.011Z,1027.51
2017-08-03T04:32:14.012Z,1027.49
2017-08-03T04:33:14.012Z,1027.53
2017-08-03T04:34:14.009Z,1027.51
2017-08-03T04:35:14.011Z,1027.5
2017-08-03T04:36:14.006Z,1027.52
2017-08-03T04:37:14.010Z,1027.49
2017-08-03T04:38:14.011Z,1027.46
2017-08-03T04:39:14.005Z,1027.42
2017-08-03T04:40:14.001Z,1027.39
2017-08-03T04:41:14.006Z,1027.36
2017-08-03T04:42:14.005Z,1027.36
2017-08-03T04:43:14.002Z,1027.34
2017-08-03T04:44:14.004Z,1027.35
2017-08-03T04:45:14.006Z,1027.31
2017-08-03T04:46:14.002Z,1027.28
2017-08-03T04:47:13.998Z,1027.2
2017-08-03T04:48:14.000Z,1027.19
2017-08-03T04:49:14.004Z,1027.13
2017-08-03T04:50:14.000Z,1027.11
2017-08-03T04:51:14.005Z,1027.13
2017-08-03T04:52:13.999Z,1027.16
2017-08-03T04:53:14.004Z,1027.15
2017-08-03T04:54:13.999Z,1027.09
2017-08-03T04:55:14.002Z,1026.99
2017-08-03T04:56:14.014Z,1026.88
2017-08-03T04:57:14.000Z,1026.79
2017-08-03T04:58:13.997Z,1026.71
2017-08-03T04:59:13.998Z,1026.65
2017-08-03T05:00:14.017Z,1026.6
2017-08-03T05:01:14.003Z,1026.62
2017-08-03T05:02:14.002Z,1026.58
2017-08-03T05:03:14.002Z,1026.54
2017-08-03T05:04:14.000Z,1026.58
2017-08-03T05:05:14.001Z,1026.55
2017-08-03T05:06:14.401Z,1026.55
2017-08-03T05:07:14.002Z,1026.55
2017-08-03T05:08:14.002Z,1026.58
2017-08-03T05:09:13.999Z,1026.63
2017-08-03T05:10:14.004Z,1026.69
2017-08-03T05:11:14.001Z,1026.77
2017-08-03T05:12:14.006Z,1026.76
2017-08-03T05:13:14.005Z,1026.8
2017-08-03T05:14:14.005Z,1026.78
2017-08-03T05:15:14.004Z,1026.8
2017-08-03T05:16:14.003Z,1026.79
2017-08-03T05:17:14.003Z,1026.71
2017-08-03T05:18:14.006Z,1026.69
2017-08-03T05:19:14.007Z,1026.63
2017-08-03T05:20:14.006Z,1026.58
2017-08-03T05:21:14.006Z,1026.53
2017-08-03T05:22:14.009Z,1026.55
2017-08-03T05:23:14.007Z,1026.48
2017-08-03T05:24:14.009Z,1026.46
2017-08-03T05:25:14.007Z,1026.31
2017-08-03T05:26:14.011Z,1026.24
2017-08-03T05:27:14.008Z,1026.21
2017-08-03T05:28:14.007Z,1026.19
2017-08-03T05:29:14.008Z,1026.13
2017-08-03T05:30:14.011Z,1026.1
2017-08-03T05:31:14.008Z,1026.08
2017-08-03T05:32:14.009Z,1026.06
2017-08-03T05:33:14.014Z,1026.01
2017-08-03T05:34:14.011Z,1025.93
2017-08-03T05:35:14.011Z,1025.79
2017-08-03T05:36:14.011Z,1025.72
2017-08-03T05:37:14.014Z,1025.77
2017-08-03T05:38:14.018Z,1025.76
2017-08-03T05:39:14.018Z,1025.76
2017-08-03T05:40:14.034Z,1025.76
2017-08-03T05:41:14.022Z,1025.74
2017-08-03T05:42:14.019Z,1025.71
2017-08-03T05:43:14.022Z,1025.69
2017-08-03T05:44:14.020Z,1025.68
2017-08-03T05:45:14.025Z,1025.67
2017-08-03T05:46:14.022Z,1025.64
2017-08-03T05:47:14.027Z,1025.62
2017-08-03T05:48:14.025Z,1025.63
2017-08-03T05:49:14.032Z,1025.58
2017-08-03T05:50:14.029Z,1025.57
2017-08-03T05:51:14.032Z,1025.6
2017-08-03T05:52:14.034Z,1025.6
2017-08-03T05:53:14.033Z,1025.62
2017-08-03T05:54:14.037Z,1025.69
2017-08-03T05:55:14.037Z,1025.72
2017-08-03T05:56:14.043Z,1025.75
2017-08-03T05:57:14.040Z,1025.75
2017-08-03T05:58:14.045Z,1025.73
2017-08-03T05:59:14.044Z,1025.7
2017-08-03T06:00:14.048Z,1025.66
2017-08-03T06:01:14.044Z,1025.66
2017-08-03T06:02:14.049Z,1025.66
2017-08-03T06:03:14.047Z,1025.69
2017-08-03T06:04:14.050Z,1025.76
2017-08-03T06:05:14.052Z,1025.74
2017-08-03T06:06:14.057Z,1025.75
2017-08-03T06:07:14.057Z,1025.65
2017-08-03T06:08:14.058Z,1025.56
2017-08-03T06:09:14.057Z,1025.49
2017-08-03T06:10:14.061Z,1025.38
2017-08-03T06:11:14.061Z,1025.33
2017-08-03T06:12:14.064Z,1025.17
2017-08-03T06:13:14.062Z,1025
2017-08-03T06:14:14.070Z,1024.8
2017-08-03T06:15:14.068Z,1024.62
2017-08-03T06:16:14.075Z,1024.44
2017-08-03T06:17:14.073Z,1024.5
2017-08-03T06:18:14.077Z,1024.58
2017-08-03T06:19:14.081Z,1024.67
2017-08-03T06:20:14.083Z,1024.77
2017-08-03T06:21:14.082Z,1024.78
2017-08-03T06:22:14.083Z,1024.79
2017-08-03T06:23:14.091Z,1024.8
2017-08-03T06:24:14.092Z,1024.77
2017-08-03T06:25:14.097Z,1024.83
2017-08-03T06:26:14.096Z,1024.77
2017-08-03T06:27:14.101Z,1024.76
2017-08-03T06:28:14.101Z,1024.76
2017-08-03T06:29:14.109Z,1024.8
2017-08-03T06:30:14.111Z,1024.86
2017-08-03T06:31:14.114Z,1024.88
2017-08-03T06:32:14.114Z,1024.91
2017-08-03T06:33:14.116Z,1024.92
2017-08-03T06:34:14.124Z,1024.92
2017-08-03T06:35:14.127Z,1024.88
2017-08-03T06:36:14.128Z,1024.8
2017-08-03T06:37:14.131Z,1024.74
2017-08-03T06:38:14.130Z,1024.56
2017-08-03T06:39:14.139Z,1024.28
2017-08-03T06:40:14.139Z,1024.16
2017-08-03T06:41:14.144Z,1024.11
2017-08-03T06:42:14.148Z,1023.85
2017-08-03T06:43:14.151Z,1023.79
2017-08-03T06:44:14.151Z,1023.81
2017-08-03T06:45:14.153Z,1023.86
2017-08-03T06:46:14.162Z,1023.9
2017-08-03T06:47:14.166Z,1023.89
2017-08-03T06:48:14.168Z,1023.84
2017-08-03T06:49:14.170Z,1023.54
2017-08-03T06:50:14.178Z,1023.28
2017-08-03T06:51:14.182Z,1023.25
2017-08-03T06:52:14.183Z,1023.28
2017-08-03T06:53:14.185Z,1023.33
2017-08-03T06:54:14.195Z,1023.23
2017-08-03T06:55:14.197Z,1023.26
2017-08-03T06:56:14.205Z,1023.24
2017-08-03T06:57:14.206Z,1023.13
2017-08-03T06:58:14.214Z,1023.04
2017-08-03T06:59:14.218Z,1023.08
2017-08-03T07:00:14.217Z,1023.02
2017-08-03T07:01:14.227Z,1022.94
2017-08-03T07:02:14.228Z,1022.89
2017-08-03T07:03:14.237Z,1022.74
2017-08-03T07:04:14.243Z,1022.08
2017-08-03T07:05:14.249Z,1021.78
2017-08-03T07:06:14.253Z,1021.45
2017-08-03T07:07:14.256Z,1021.23
2017-08-03T07:08:14.264Z,1021.48
2017-08-03T07:09:14.270Z,1021.82
2017-08-03T07:10:14.277Z,1022.09
2017-08-03T07:11:14.284Z,1022.35
2017-08-03T07:12:14.290Z,1022.56
2017-08-03T07:13:14.296Z,1022.75
2017-08-03T07:14:14.298Z,1022.8
2017-08-03T07:15:14.310Z,1022.84
2017-08-03T07:16:14.316Z,1022.62
2017-08-03T07:17:14.319Z,1022.37
2017-08-03T07:18:14.330Z,1021.93
2017-08-03T07:19:14.338Z,1021.66
2017-08-03T07:20:14.341Z,1021.7
2017-08-03T07:21:14.349Z,1021.43
2017-08-03T07:22:14.355Z,1021.25
2017-08-03T07:23:14.362Z,1021.4
2017-08-03T07:24:14.367Z,1021.47
2017-08-03T07:25:14.380Z,1021.61
2017-08-03T07:26:14.382Z,1021.79
2017-08-03T07:27:14.394Z,1022.03
2017-08-03T07:28:14.399Z,1022.19
2017-08-03T07:29:14.408Z,1022.4
2017-08-03T07:30:14.410Z,1022.55
2017-08-03T07:31:14.420Z,1022.66
2017-08-03T07:32:14.430Z,1022.74
2017-08-03T07:33:14.436Z,1022.78
2017-08-03T07:34:14.445Z,1022.86
2017-08-03T07:35:14.451Z,1022.86
2017-08-03T07:36:14.457Z,1022.86
2017-08-03T07:37:14.465Z,1022.86
2017-08-03T07:38:14.470Z,1022.82
2017-08-03T07:39:14.479Z,1022.72
2017-08-03T07:40:14.483Z,1022.7
2017-08-03T07:41:14.488Z,1022.73
2017-08-03T07:42:14.850Z,1022.76
2017-08-03T07:43:14.501Z,1022.7
2017-08-03T07:44:14.514Z,1022.6
2017-08-03T07:45:14.519Z,1022.39
2017-08-03T07:46:14.528Z,1022.15
2017-08-03T07:47:14.530Z,1021.8
2017-08-03T07:48:14.540Z,1021.68
2017-08-03T07:49:14.561Z,1021.35
2017-08-03T07:50:14.550Z,1020.64
2017-08-03T07:51:14.557Z,1020.61
2017-08-03T07:52:14.565Z,1020.58
2017-08-03T07:53:14.575Z,1020.63
2017-08-03T07:54:14.582Z,1020.79
2017-08-03T07:55:14.587Z,1020.89
2017-08-03T07:56:14.598Z,1020.91
2017-08-03T07:57:14.603Z,1021.09
2017-08-03T07:58:14.613Z,1021.29
2017-08-03T07:59:14.619Z,1021.54
2017-08-03T08:00:14.633Z,1021.7
2017-08-03T08:01:14.639Z,1021.82
2017-08-03T08:02:14.646Z,1021.83
2017-08-03T08:03:14.655Z,1021.89
2017-08-03T08:04:14.666Z,1021.91
2017-08-03T08:05:14.676Z,1021.18
2017-08-03T08:06:14.682Z,1020.86
2017-08-03T08:07:14.690Z,1020.56
2017-08-03T08:08:14.692Z,1020.47
2017-08-03T08:09:14.706Z,1020.44
2017-08-03T08:10:14.713Z,1020.67
2017-08-03T08:11:14.724Z,1020.37
2017-08-03T08:12:14.728Z,1020.36
2017-08-03T08:13:14.743Z,1020.54
2017-08-03T08:14:14.752Z,1020.7
2017-08-03T08:15:14.758Z,1020.92
2017-08-03T08:16:14.763Z,1021.11
2017-08-03T08:17:14.770Z,1021.32
2017-08-03T08:18:14.783Z,1021.49
2017-08-03T08:19:14.788Z,1021.59
2017-08-03T08:20:14.804Z,1021.76
2017-08-03T08:21:14.810Z,1021.95
2017-08-03T08:22:14.830Z,1022.08
2017-08-03T08:23:14.827Z,1022.18
2017-08-03T08:24:14.834Z,1022.31
2017-08-03T08:25:14.842Z,1022.45
2017-08-03T08:26:14.853Z,1022.51
2017-08-03T08:27:14.860Z,1022.53
2017-08-03T08:28:14.868Z,1022.67
2017-08-03T08:29:14.874Z,1022.74
2017-08-03T08:30:14.878Z,1022.79
2017-08-03T08:31:14.891Z,1022.86
2017-08-03T08:32:14.896Z,1022.9
2017-08-03T08:33:14.907Z,1022.94
2017-08-03T08:34:14.911Z,1022.93
2017-08-03T08:35:14.923Z,1022.96
2017-08-03T08:36:14.924Z,1023
2017-08-03T08:37:14.935Z,1022.99
2017-08-03T08:38:14.943Z,1023.09
2017-08-03T08:39:14.951Z,1023.18
2017-08-03T08:40:14.956Z,1023.14
2017-08-03T08:41:14.961Z,1023.16
2017-08-03T08:42:14.969Z,1023.23
2017-08-03T08:43:14.977Z,1023.22
2017-08-03T08:44:14.979Z,1023.23
2017-08-03T08:45:14.989Z,1023.29
2017-08-03T08:46:14.990Z,1023.34
2017-08-03T08:47:14.999Z,1023.37
2017-08-03T08:48:15.003Z,1023.34
2017-08-03T08:49:15.013Z,1023.2
2017-08-03T08:50:15.023Z,1023.12
2017-08-03T08:51:15.027Z,1023.01
2017-08-03T08:52:15.029Z,1022.92
2017-08-03T08:53:15.036Z,1022.89
2017-08-03T08:54:15.041Z,1022.93
2017-08-03T08:55:15.046Z,1022.94
2017-08-03T08:56:15.052Z,1022.93
2017-08-03T08:57:15.057Z,1022.88
2017-08-03T08:58:15.063Z,1022.86
2017-08-03T08:59:15.071Z,1022.8
2017-08-03T09:00:15.074Z,1022.81
2017-08-03T09:01:15.081Z,1022.85
2017-08-03T09:02:15.086Z,1022.9
2017-08-03T09:03:15.093Z,1022.93
2017-08-03T09:04:15.101Z,1022.98
2017-08-03T09:05:15.104Z,1022.96
2017-08-03T09:06:15.109Z,1022.95
2017-08-03T09:07:15.116Z,1022.91
2017-08-03T09:08:15.115Z,1022.85
2017-08-03T09:09:15.127Z,1022.82
2017-08-03T09:10:15.131Z,1022.79
2017-08-03T09:11:15.134Z,1022.82
2017-08-03T09:12:15.142Z,1022.79
2017-08-03T09:13:15.145Z,1022.75
2017-08-03T09:14:15.153Z,1022.75
2017-08-03T09:15:15.159Z,1022.8
2017-08-03T09:16:15.161Z,1022.87
2017-08-03T09:17:15.165Z,1022.91
2017-08-03T09:18:15.177Z,1022.89
2017-08-03T09:19:15.180Z,1022.84
2017-08-03T09:20:15.183Z,1022.82
2017-08-03T09:21:15.190Z,1022.83
2017-08-03T09:22:15.195Z,1022.9
2017-08-03T09:23:15.196Z,1022.99
2017-08-03T09:24:15.207Z,1022.96
2017-08-03T09:25:15.210Z,1022.98
2017-08-03T09:26:15.214Z,1023.05
2017-08-03T09:27:15.220Z,1023.08
2017-08-03T09:28:15.225Z,1023.16
2017-08-03T09:29:15.227Z,1023.27
2017-08-03T09:30:15.233Z,1023.45
2017-08-03T09:31:15.236Z,1023.61
2017-08-03T09:32:15.245Z,1023.63
2017-08-03T09:33:15.248Z,1023.61
2017-08-03T09:34:15.256Z,1023.6
2017-08-03T09:35:15.260Z,1023.67
2017-08-03T09:36:15.263Z,1023.71
2017-08-03T09:37:15.267Z,1023.71
2017-08-03T09:38:15.273Z,1023.57
2017-08-03T09:39:15.276Z,1023.42
2017-08-03T09:40:15.282Z,1023.32
2017-08-03T09:41:15.285Z,1023.22
2017-08-03T09:42:15.291Z,1023.14
2017-08-03T09:43:15.290Z,1023.1
2017-08-03T09:44:15.299Z,1023.12
2017-08-03T09:45:15.303Z,1023.2
2017-08-03T09:46:15.308Z,1023.26
2017-08-03T09:47:15.314Z,1023.3
2017-08-03T09:48:15.316Z,1023.29
2017-08-03T09:49:15.323Z,1023.28
2017-08-03T09:50:15.337Z,1023.27
2017-08-03T09:51:15.330Z,1023.25
2017-08-03T09:52:15.332Z,1023.13
2017-08-03T09:53:15.343Z,1023.12
2017-08-03T09:54:15.343Z,1023.09
2017-08-03T09:55:15.349Z,1023.12
2017-08-03T09:56:15.353Z,1023.2
2017-08-03T09:57:15.360Z,1023.19
2017-08-03T09:58:15.362Z,1023.25
2017-08-03T09:59:15.367Z,1023.32
2017-08-03T10:00:15.374Z,1023.41
2017-08-03T10:01:15.383Z,1023.43
2017-08-03T10:02:15.383Z,1023.42
2017-08-03T10:03:15.391Z,1023.43
2017-08-03T10:04:15.393Z,1023.4
2017-08-03T10:05:15.397Z,1023.34
2017-08-03T10:06:15.398Z,1023.31
2017-08-03T10:07:15.407Z,1023.32
2017-08-03T10:08:15.410Z,1023.31
2017-08-03T10:09:15.416Z,1023.32
2017-08-03T10:10:15.418Z,1023.33
2017-08-03T10:11:15.433Z,1023.31
2017-08-03T10:12:15.433Z,1023.28
2017-08-03T10:13:15.437Z,1023.26
2017-08-03T10:14:15.438Z,1023.24
2017-08-03T10:15:15.446Z,1023.28
2017-08-03T10:16:15.448Z,1023.25
2017-08-03T10:17:15.450Z,1023.22
2017-08-03T10:18:15.757Z,1023.14
2017-08-03T10:19:15.464Z,1023.15
2017-08-03T10:20:15.469Z,1023.14
2017-08-03T10:21:15.476Z,1023.09
2017-08-03T10:22:15.480Z,1023.01
2017-08-03T10:23:15.486Z,1022.93
2017-08-03T10:24:15.486Z,1022.94
2017-08-03T10:25:15.493Z,1022.94
2017-08-03T10:26:15.494Z,1022.98
2017-08-03T10:27:15.502Z,1022.98
2017-08-03T10:28:15.510Z,1022.97
2017-08-03T10:29:15.514Z,1022.87
2017-08-03T10:30:15.516Z,1022.77
2017-08-03T10:31:15.525Z,1022.75
2017-08-03T10:32:15.528Z,1022.76
2017-08-03T10:33:15.532Z,1022.71
2017-08-03T10:34:15.538Z,1022.66
2017-08-03T10:35:15.541Z,1022.63
2017-08-03T10:36:15.546Z,1022.52
2017-08-03T10:37:15.556Z,1022.51
2017-08-03T10:38:15.556Z,1022.49
2017-08-03T10:39:15.563Z,1022.41
2017-08-03T10:40:15.565Z,1022.34
2017-08-03T10:41:15.573Z,1022.39
2017-08-03T10:42:15.575Z,1022.28
2017-08-03T10:43:15.582Z,1022.26
2017-08-03T10:44:15.583Z,1022.2
2017-08-03T10:45:15.590Z,1022.18
2017-08-03T10:46:15.595Z,1022.07
2017-08-03T10:47:15.604Z,1022.07
2017-08-03T10:48:15.606Z,1022.09
2017-08-03T10:49:15.613Z,1022.04
2017-08-03T10:50:15.620Z,1022.03
2017-08-03T10:51:15.627Z,1021.96
2017-08-03T10:52:15.630Z,1021.92
2017-08-03T10:53:15.633Z,1021.89
2017-08-03T10:54:15.638Z,1021.89
2017-08-03T10:55:15.647Z,1021.84
2017-08-03T10:56:15.650Z,1021.78
2017-08-03T10:57:15.662Z,1021.69
2017-08-03T10:58:15.660Z,1021.56
2017-08-03T10:59:15.670Z,1021.4
2017-08-03T11:00:15.670Z,1021.24
2017-08-03T11:01:15.678Z,1021.1
2017-08-03T11:02:15.683Z,1020.99
2017-08-03T11:03:15.693Z,1020.85
2017-08-03T11:04:15.700Z,1020.73
2017-08-03T11:05:15.702Z,1020.68
2017-08-03T11:06:15.708Z,1020.64
2017-08-03T11:07:15.718Z,1020.57
2017-08-03T11:08:15.728Z,1020.59
2017-08-03T11:09:15.733Z,1020.41
2017-08-03T11:10:15.740Z,1020.37
2017-08-03T11:11:15.744Z,1020.5
2017-08-03T11:12:15.754Z,1020.49
2017-08-03T11:13:15.756Z,1020.5
2017-08-03T11:14:15.765Z,1020.6
2017-08-03T11:15:15.775Z,1020.63
2017-08-03T11:16:15.779Z,1020.72
2017-08-03T11:17:15.786Z,1020.82
2017-08-03T11:18:15.796Z,1020.9
2017-08-03T11:19:15.801Z,1020.92
2017-08-03T11:20:15.812Z,1020.94
2017-08-03T11:21:15.815Z,1020.94
2017-08-03T11:22:15.823Z,1020.89
2017-08-03T11:23:15.829Z,1020.89
2017-08-03T11:24:15.838Z,1021.07
2017-08-03T11:25:15.845Z,1021.1
2017-08-03T11:26:15.850Z,1021.24
2017-08-03T11:27:15.854Z,1021.2
2017-08-03T11:28:15.870Z,1021.23
2017-08-03T11:29:15.867Z,1021.2
2017-08-03T11:30:15.879Z,1021.18
2017-08-03T11:31:15.882Z,1021.14
2017-08-03T11:32:15.891Z,1021.09
2017-08-03T11:33:15.900Z,1020.99
2017-08-03T11:34:15.903Z,1021.04
2017-08-03T11:35:15.911Z,1021
2017-08-03T11:36:16.165Z,1021.14
2017-08-03T11:37:15.924Z,1021.16
2017-08-03T11:38:15.933Z,1021.12
2017-08-03T11:39:15.934Z,1021.07
2017-08-03T11:40:15.943Z,1021.05
2017-08-03T11:41:15.948Z,1020.97
2017-08-03T11:42:15.958Z,1021.04
2017-08-03T11:43:15.961Z,1020.94
2017-08-03T11:44:15.970Z,1020.91
2017-08-03T11:45:15.971Z,1020.96
2017-08-03T11:46:15.982Z,1020.87
2017-08-03T11:47:15.983Z,1020.68
2017-08-03T11:48:15.992Z,1020.75
2017-08-03T11:49:16.001Z,1020.72
2017-08-03T11:50:16.005Z,1020.7
2017-08-03T11:51:16.012Z,1020.61
2017-08-03T11:52:16.019Z,1020.45
2017-08-03T11:53:16.029Z,1020.27
2017-08-03T11:54:16.032Z,1020.13
2017-08-03T11:55:16.038Z,1020.02
2017-08-03T11:56:16.044Z,1019.93
2017-08-03T11:57:16.054Z,1019.91
2017-08-03T11:58:16.061Z,1019.91
2017-08-03T11:59:16.067Z,1019.89
2017-08-03T12:00:16.072Z,1019.84
2017-08-03T12:01:16.078Z,1019.83
2017-08-03T12:02:16.085Z,1019.78
2017-08-03T12:03:16.092Z,1019.77
2017-08-03T12:04:16.097Z,1019.87
2017-08-03T12:05:16.109Z,1019.87
2017-08-03T12:06:16.115Z,1019.81
2017-08-03T12:07:16.120Z,1019.87
2017-08-03T12:08:16.128Z,1019.89